createdAt,value
2022-09-15T00:01:04.221Z,98555.91
2022-09-15T00:04:08.779Z,98551.84
2022-09-15T00:07:11.568Z,98554.97
2022-09-15T00:10:14.966Z,98563.62
2022-09-15T00:13:18.315Z,98567.00
2022-09-15T00:16:24.466Z,98589.31
2022-09-15T00:19:27.281Z,98595.88
2022-09-15T00:22:30.413Z,98600.97
2022-09-15T00:25:33.464Z,98593.34
2022-09-15T00:28:37.591Z,98589.28
2022-09-15T00:31:40.409Z,98593.09
2022-09-15T00:34:43.517Z,98574.63
2022-09-15T00:37:46.567Z,98585.34
2022-09-15T00:40:56.267Z,98598.53
2022-09-15T00:44:26.695Z,98587.81
2022-09-15T00:47:39.702Z,98582.47
2022-09-15T00:50:46.045Z,98596.81
2022-09-15T00:53:51.032Z,98591.03
2022-09-15T00:56:57.154Z,98591.34
2022-09-15T01:00:04.221Z,98607.63
2022-09-15T01:03:07.754Z,98593.38
2022-09-15T01:06:16.546Z,98593.78
2022-09-15T01:09:27.772Z,98588.22
2022-09-15T01:12:31.469Z,98598.91
2022-09-15T01:15:55.978Z,98588.88
2022-09-15T01:19:27.358Z,98583.53
2022-09-15T01:22:56.875Z,98575.09
2022-09-15T01:26:00.147Z,98571.19
2022-09-15T01:29:31.363Z,98575.78
2022-09-15T01:33:05.933Z,98574.38
2022-09-15T01:36:18.361Z,98574.25
2022-09-15T01:39:25.746Z,98581.25
2022-09-15T01:42:31.228Z,98571.34
2022-09-15T01:45:39.101Z,98576.19
2022-09-15T01:48:43.435Z,98566.97
2022-09-15T01:51:52.136Z,98567.34
2022-09-15T01:55:02.253Z,98552.87
2022-09-15T01:58:05.799Z,98563.31
2022-09-15T02:01:08.577Z,98576.84
2022-09-15T02:04:23.911Z,98605.16
2022-09-15T02:07:32.003Z,98601.94
2022-09-15T02:10:44.476Z,98585.00
2022-09-15T02:14:03.849Z,98572.47
2022-09-15T02:17:14.985Z,98564.19
2022-09-15T02:20:42.419Z,98545.19
2022-09-15T02:23:51.303Z,98542.06
2022-09-15T02:26:55.432Z,98544.03
2022-09-15T02:30:06.015Z,98533.28
2022-09-15T02:33:16.507Z,98544.47
2022-09-15T02:36:21.575Z,98538.81
2022-09-15T02:39:31.552Z,98538.16
2022-09-15T02:42:35.266Z,98526.78
2022-09-15T02:45:38.287Z,98523.53
2022-09-15T02:48:41.717Z,98539.75
2022-09-15T02:51:44.569Z,98538.69
2022-09-15T02:54:48.175Z,98540.09
2022-09-15T02:57:50.950Z,98569.72
2022-09-15T03:00:56.015Z,98560.47
2022-09-15T03:03:59.266Z,98583.03
2022-09-15T03:07:02.419Z,98579.81
2022-09-15T03:10:06.773Z,98573.00
2022-09-15T03:13:09.785Z,98585.66
2022-09-15T03:16:14.873Z,98573.53
2022-09-15T03:19:18.097Z,98577.72
2022-09-15T03:22:21.556Z,98573.19
2022-09-15T03:25:27.063Z,98568.19
2022-09-15T03:28:30.376Z,98573.41
2022-09-15T03:31:33.482Z,98580.03
2022-09-15T03:34:36.516Z,98573.53
2022-09-15T03:37:39.609Z,98576.41
2022-09-15T03:40:43.868Z,98561.81
2022-09-15T03:43:46.932Z,98567.81
2022-09-15T03:46:50.277Z,98560.06
2022-09-15T03:49:53.406Z,98549.81
2022-09-15T03:52:58.807Z,98558.38
2022-09-15T03:56:18.207Z,98563.09
2022-09-15T03:59:21.696Z,98565.06
2022-09-15T04:02:25.187Z,98558.22
2022-09-15T04:05:29.024Z,98539.75
2022-09-15T04:08:32.185Z,98545.44
2022-09-15T04:11:35.444Z,98538.94
2022-09-15T04:14:38.497Z,98536.41
2022-09-15T04:17:41.715Z,98544.69
2022-09-15T04:20:44.541Z,98563.69
2022-09-15T04:23:48.715Z,98556.53
2022-09-15T04:26:51.821Z,98551.69
2022-09-15T04:29:54.833Z,98530.91
2022-09-15T04:32:57.633Z,98522.75
2022-09-15T04:36:11.671Z,98531.03
2022-09-15T04:39:14.484Z,98539.28
2022-09-15T04:42:17.664Z,98540.56
2022-09-15T04:45:21.626Z,98539.91
2022-09-15T04:48:25.586Z,98553.37
2022-09-15T04:51:28.747Z,98567.19
2022-09-15T04:54:34.746Z,98578.38
2022-09-15T04:57:37.717Z,98593.94
2022-09-15T05:00:46.045Z,98595.72
2022-09-15T05:03:49.737Z,98608.53
2022-09-15T05:06:52.884Z,98605.13
2022-09-15T05:09:55.693Z,98614.00
2022-09-15T05:12:58.740Z,98614.94
2022-09-15T05:16:12.419Z,98609.62
2022-09-15T05:19:15.624Z,98620.97
2022-09-15T05:22:18.450Z,98613.13
2022-09-15T05:25:21.526Z,98606.78
2022-09-15T05:28:24.950Z,98602.06
2022-09-15T05:31:33.898Z,98608.50
2022-09-15T05:34:36.922Z,98610.72
2022-09-15T05:37:39.955Z,98611.09
2022-09-15T05:40:42.902Z,98643.53
2022-09-15T05:43:47.489Z,98636.37
2022-09-15T05:46:50.269Z,98638.06
2022-09-15T05:49:53.949Z,98653.78
2022-09-15T05:52:57.119Z,98647.91
2022-09-15T05:56:03.253Z,98651.63
2022-09-15T05:59:06.151Z,98643.00
2022-09-15T06:02:10.665Z,98650.63
2022-09-15T06:05:14.167Z,98655.47
2022-09-15T06:08:18.261Z,98653.41
2022-09-15T06:11:24.443Z,98666.34
2022-09-15T06:14:27.187Z,98660.94
2022-09-15T06:17:32.951Z,98668.34
2022-09-15T06:20:36.446Z,98655.31
2022-09-15T06:23:40.692Z,98641.25
2022-09-15T06:26:43.983Z,98659.87
2022-09-15T06:29:47.334Z,98662.78
2022-09-15T06:32:50.320Z,98660.75
2022-09-15T06:35:53.918Z,98657.38
2022-09-15T06:38:57.148Z,98657.28
2022-09-15T06:42:03.673Z,98661.22
2022-09-15T06:45:10.777Z,98661.94
2022-09-15T06:48:24.552Z,98675.34
2022-09-15T06:51:31.444Z,98683.88
2022-09-15T06:54:34.803Z,98685.75
2022-09-15T06:57:37.655Z,98703.78
2022-09-15T07:00:41.274Z,98698.78
2022-09-15T07:03:44.312Z,98684.09
2022-09-15T07:06:48.270Z,98708.16
2022-09-15T07:09:51.000Z,98713.66
2022-09-15T07:12:54.276Z,98718.94
2022-09-15T07:16:00.045Z,98696.03
2022-09-15T07:19:05.949Z,98693.69
2022-09-15T07:22:08.837Z,98690.97
2022-09-15T07:25:12.079Z,98697.22
2022-09-15T07:28:15.870Z,98697.00
2022-09-15T07:31:22.018Z,98714.22
2022-09-15T07:34:25.569Z,98705.87
2022-09-15T07:37:28.697Z,98709.72
2022-09-15T07:40:32.236Z,98702.72
2022-09-15T07:43:35.572Z,98696.53
2022-09-15T07:46:38.301Z,98695.59
2022-09-15T07:49:42.216Z,98693.66
2022-09-15T07:52:44.979Z,98699.47
2022-09-15T07:55:54.529Z,98703.06
2022-09-15T07:58:57.422Z,98706.50
2022-09-15T08:02:00.643Z,98696.16
2022-09-15T08:05:03.961Z,98704.84
2022-09-15T08:08:07.181Z,98703.88
2022-09-15T08:11:18.516Z,98694.62
2022-09-15T08:14:22.057Z,98691.81
2022-09-15T08:17:25.362Z,98684.09
2022-09-15T08:20:28.895Z,98679.25
2022-09-15T08:23:32.643Z,98677.59
2022-09-15T08:26:38.447Z,98673.09
2022-09-15T08:29:41.736Z,98683.72
2022-09-15T08:32:44.893Z,98675.00
2022-09-15T08:35:47.926Z,98682.03
2022-09-15T08:38:51.162Z,98679.66
2022-09-15T08:41:55.586Z,98672.88
2022-09-15T08:45:09.302Z,98668.97
2022-09-15T08:48:21.004Z,98670.75
2022-09-15T08:51:32.465Z,98657.63
2022-09-15T08:54:35.515Z,98656.38
2022-09-15T08:57:38.986Z,98646.06
2022-09-15T09:00:44.343Z,98652.53
2022-09-15T09:04:05.787Z,98648.91
2022-09-15T09:07:44.492Z,98650.31
2022-09-15T09:10:59.106Z,98659.28
2022-09-15T09:14:41.154Z,98649.75
2022-09-15T09:18:12.050Z,98628.31
2022-09-15T09:21:22.358Z,98624.69
2022-09-15T09:24:29.453Z,98621.56
2022-09-15T09:27:35.147Z,98622.44
2022-09-15T09:30:39.179Z,98618.66
2022-09-15T09:33:49.649Z,98613.03
2022-09-15T09:36:57.665Z,98607.75
2022-09-15T09:40:01.179Z,98613.56
2022-09-15T09:43:04.125Z,98587.94
2022-09-15T09:46:19.009Z,98580.44
2022-09-15T09:49:24.138Z,98572.88
2022-09-15T09:52:34.427Z,98578.03
2022-09-15T09:55:37.455Z,98574.47
2022-09-15T09:58:40.656Z,98566.56
2022-09-15T10:02:12.157Z,98561.37
2022-09-15T10:05:20.303Z,98547.13
2022-09-15T10:08:23.325Z,98546.72
2022-09-15T10:11:41.316Z,98543.28
2022-09-15T10:14:52.643Z,98540.41
2022-09-15T10:17:57.152Z,98543.16
2022-09-15T10:21:04.987Z,98542.50
2022-09-15T10:24:28.442Z,98552.06
2022-09-15T10:27:36.363Z,98552.06
2022-09-15T10:30:59.981Z,98536.09
2022-09-15T10:34:32.276Z,98535.72
2022-09-15T10:38:12.758Z,98542.91
2022-09-15T10:41:29.112Z,98543.47
2022-09-15T10:44:50.702Z,98543.56
2022-09-15T10:48:46.201Z,98540.72
2022-09-15T10:52:05.086Z,98542.72
2022-09-15T10:55:48.514Z,98534.44
2022-09-15T10:59:13.796Z,98533.78
2022-09-15T11:02:25.601Z,98521.25
2022-09-15T11:05:32.015Z,98528.53
2022-09-15T11:09:00.932Z,98513.25
2022-09-15T11:12:07.421Z,98514.94
2022-09-15T11:15:28.136Z,98509.09
2022-09-15T11:18:34.434Z,98497.28
2022-09-15T11:21:43.200Z,98496.97
2022-09-15T11:25:05.341Z,98511.50
2022-09-15T11:28:20.309Z,98527.06
2022-09-15T11:31:29.837Z,98523.88
2022-09-15T11:34:40.289Z,98515.59
2022-09-15T11:37:48.490Z,98501.41
2022-09-15T11:41:01.925Z,98493.97
2022-09-15T11:44:30.875Z,98489.06
2022-09-15T11:47:42.662Z,98481.09
2022-09-15T11:50:49.048Z,98469.41
2022-09-15T11:53:56.180Z,98471.97
2022-09-15T11:57:00.484Z,98479.69
2022-09-15T12:00:12.925Z,98497.31
2022-09-15T12:03:23.310Z,98495.62
2022-09-15T12:06:32.363Z,98492.06
2022-09-15T12:09:35.493Z,98494.38
2022-09-15T12:12:41.619Z,98487.53
2022-09-15T12:15:46.789Z,98471.06
2022-09-15T12:18:53.732Z,98460.59
2022-09-15T12:22:12.239Z,98453.47
2022-09-15T12:25:20.171Z,98446.09
2022-09-15T12:28:24.106Z,98438.31
2022-09-15T12:31:38.657Z,98435.00
2022-09-15T12:34:57.771Z,98446.91
2022-09-15T12:38:01.153Z,98449.06
2022-09-15T12:41:04.978Z,98444.53
2022-09-15T12:44:23.543Z,98441.91
2022-09-15T12:47:32.487Z,98437.81
2022-09-15T12:50:42.742Z,98428.06
2022-09-15T12:53:46.382Z,98427.91
2022-09-15T12:56:54.542Z,98434.94
2022-09-15T13:00:27.474Z,98424.53
2022-09-15T13:07:15.174Z,98441.78
2022-09-15T13:10:41.258Z,98451.50
2022-09-15T13:13:50.437Z,98423.25
2022-09-15T13:17:03.966Z,98417.00
2022-09-15T13:20:18.004Z,98418.53
2022-09-15T13:23:25.704Z,98413.22
2022-09-15T13:26:31.844Z,98402.88
2022-09-15T13:30:09.666Z,98398.09
2022-09-15T13:33:25.231Z,98387.22
2022-09-15T13:40:32.437Z,98388.88
2022-09-15T13:43:40.036Z,98397.97
2022-09-15T13:46:51.774Z,98392.91
2022-09-15T13:50:06.559Z,98400.13
2022-09-15T13:53:45.570Z,98415.25
2022-09-15T13:56:49.222Z,98440.63
2022-09-15T13:59:52.801Z,98460.00
2022-09-15T14:03:02.144Z,98524.66
2022-09-15T14:06:15.153Z,98487.13
2022-09-15T14:09:25.859Z,98474.63
2022-09-15T14:12:28.934Z,98477.16
2022-09-15T14:15:31.775Z,98467.25
2022-09-15T14:18:44.017Z,98457.47
2022-09-15T14:21:53.787Z,98444.41
2022-09-15T14:25:16.616Z,98434.03
2022-09-15T14:28:28.311Z,98444.19
2022-09-15T14:31:41.069Z,98468.78
2022-09-15T14:34:45.040Z,98469.09
2022-09-15T14:37:50.179Z,98470.50
2022-09-15T14:40:56.863Z,98468.84
2022-09-15T14:43:59.865Z,98462.63
2022-09-15T14:47:20.446Z,98444.16
2022-09-15T14:50:23.921Z,98443.12
2022-09-15T14:53:27.971Z,98435.03
2022-09-15T14:56:35.767Z,98432.25
2022-09-15T14:59:49.478Z,98433.28
2022-09-15T15:02:58.488Z,98415.03
2022-09-15T15:09:39.727Z,98427.59
2022-09-15T15:12:46.271Z,98421.91
2022-09-15T15:15:49.402Z,98438.66
2022-09-15T15:18:53.338Z,98437.66
2022-09-15T15:22:12.319Z,98432.94
2022-09-15T15:25:29.060Z,98440.69
2022-09-15T15:28:35.990Z,98463.50
2022-09-15T15:31:40.297Z,98454.25
2022-09-15T15:35:02.657Z,98449.88
2022-09-15T15:38:11.598Z,98437.31
2022-09-15T15:41:24.386Z,98424.97
2022-09-15T15:44:29.661Z,98420.72
2022-09-15T15:47:36.072Z,98422.34
2022-09-15T15:50:39.253Z,98411.66
2022-09-15T15:53:42.705Z,98412.34
2022-09-15T15:56:45.593Z,98419.25
2022-09-15T15:59:48.552Z,98441.44
2022-09-15T16:02:52.437Z,98453.87
2022-09-15T16:05:59.678Z,98439.66
2022-09-15T16:09:03.996Z,98457.53
2022-09-15T16:12:08.991Z,98458.88
2022-09-15T16:15:15.027Z,98451.59
2022-09-15T16:18:18.092Z,98453.28
2022-09-15T16:21:27.423Z,98466.50
2022-09-15T16:24:31.185Z,98467.84
2022-09-15T16:27:33.885Z,98473.69
2022-09-15T16:30:37.260Z,98468.16
2022-09-15T16:33:44.322Z,98470.00
2022-09-15T16:36:47.311Z,98473.44
2022-09-15T16:39:52.205Z,98480.31
2022-09-15T16:42:55.288Z,98471.72
2022-09-15T16:45:57.990Z,98479.53
2022-09-15T16:49:00.836Z,98479.06
2022-09-15T16:52:04.113Z,98479.25
2022-09-15T16:55:21.318Z,98483.94
2022-09-15T16:58:24.088Z,98481.72
2022-09-15T17:01:27.571Z,98487.56
2022-09-15T17:04:30.243Z,98486.09
2022-09-15T17:07:33.199Z,98496.66
2022-09-15T17:10:36.832Z,98504.47
2022-09-15T17:13:39.857Z,98504.66
2022-09-15T17:16:42.454Z,98494.59
2022-09-15T17:19:45.413Z,98466.59
2022-09-15T17:22:48.699Z,98455.41
2022-09-15T17:25:59.096Z,98455.91
2022-09-15T17:29:01.871Z,98447.00
2022-09-15T17:32:04.838Z,98439.72
2022-09-15T17:35:25.066Z,98436.81
2022-09-15T17:38:28.249Z,98433.59
2022-09-15T17:41:32.404Z,98424.69
2022-09-15T17:44:37.605Z,98431.34
2022-09-15T17:47:40.563Z,98425.03
2022-09-15T17:50:45.351Z,98423.87
2022-09-15T17:53:48.191Z,98436.06
2022-09-15T17:56:51.201Z,98442.72
2022-09-15T17:59:53.841Z,98457.62
2022-09-15T18:02:59.500Z,98454.06
2022-09-15T18:06:07.897Z,98450.34
2022-09-15T18:09:11.737Z,98445.81
2022-09-15T18:12:14.675Z,98436.09
2022-09-15T18:15:21.397Z,98432.38
2022-09-15T18:18:27.592Z,98427.41
2022-09-15T18:21:30.363Z,98445.06
2022-09-15T18:24:33.351Z,98433.72
2022-09-15T18:27:35.996Z,98433.56
2022-09-15T18:30:41.836Z,98448.47
2022-09-15T18:33:44.490Z,98456.75
2022-09-15T18:36:47.368Z,98460.66
2022-09-15T18:39:50.107Z,98465.97
2022-09-15T18:42:54.197Z,98478.16
2022-09-15T18:46:01.280Z,98488.84
2022-09-15T18:49:05.057Z,98492.59
2022-09-15T18:52:07.872Z,98489.81
2022-09-15T18:55:15.239Z,98481.56
2022-09-15T18:58:19.310Z,98489.50
2022-09-15T19:01:22.588Z,98490.47
2022-09-15T19:04:31.069Z,98492.41
2022-09-15T19:07:35.290Z,98498.91
2022-09-15T19:10:42.254Z,98485.31
2022-09-15T19:13:45.297Z,98489.34
2022-09-15T19:16:57.671Z,98489.34
2022-09-15T19:20:01.937Z,98500.22
2022-09-15T19:23:04.652Z,98488.56
2022-09-15T19:26:13.051Z,98498.59
2022-09-15T19:29:15.816Z,98515.63
2022-09-15T19:32:19.243Z,98520.00
2022-09-15T19:35:21.930Z,98526.81
2022-09-15T19:38:25.242Z,98528.44
2022-09-15T19:41:27.926Z,98529.37
2022-09-15T19:44:30.971Z,98532.19
2022-09-15T19:47:34.187Z,98516.75
2022-09-15T19:50:38.542Z,98520.47
2022-09-15T19:53:42.399Z,98536.53
2022-09-15T19:56:45.388Z,98536.72
2022-09-15T19:59:48.228Z,98549.84
2022-09-15T20:02:51.228Z,98561.69
2022-09-15T20:05:57.150Z,98565.56
2022-09-15T20:09:00.122Z,98558.25
2022-09-15T20:12:03.513Z,98561.69
2022-09-15T20:15:09.491Z,98583.72
2022-09-15T20:18:13.508Z,98598.16
2022-09-15T20:21:27.116Z,98597.34
2022-09-15T20:24:35.894Z,98601.88
2022-09-15T20:27:38.510Z,98604.13
2022-09-15T20:30:42.957Z,98595.41
2022-09-15T20:33:47.505Z,98596.19
2022-09-15T20:36:50.985Z,98610.00
2022-09-15T20:39:54.044Z,98604.47
2022-09-15T20:42:57.039Z,98617.62
2022-09-15T20:46:05.084Z,98611.28
2022-09-15T20:49:09.847Z,98605.63
2022-09-15T20:52:12.505Z,98592.34
2022-09-15T20:55:15.462Z,98592.03
2022-09-15T20:58:18.266Z,98590.72
2022-09-15T21:01:34.753Z,98598.34
2022-09-15T21:04:37.494Z,98585.16
2022-09-15T21:07:40.504Z,98592.13
2022-09-15T21:10:44.938Z,98592.59
2022-09-15T21:13:48.195Z,98622.09
2022-09-15T21:16:50.930Z,98631.66
2022-09-15T21:19:53.975Z,98620.31
2022-09-15T21:22:57.746Z,98619.47
2022-09-15T21:26:05.695Z,98625.75
2022-09-15T21:29:08.695Z,98637.41
2022-09-15T21:32:11.623Z,98637.88
2022-09-15T21:35:14.790Z,98641.91
2022-09-15T21:38:17.765Z,98651.66
2022-09-15T21:41:22.840Z,98655.88
2022-09-15T21:44:25.953Z,98656.84
2022-09-15T21:47:28.587Z,98656.56
2022-09-15T21:50:31.750Z,98669.53
2022-09-15T21:53:37.869Z,98684.13
2022-09-15T21:56:41.464Z,98688.38
2022-09-15T21:59:44.134Z,98690.97
2022-09-15T22:02:51.163Z,98703.63
2022-09-15T22:05:54.131Z,98697.31
2022-09-15T22:08:57.186Z,98705.28
2022-09-15T22:12:00.138Z,98698.28
2022-09-15T22:15:02.916Z,98704.13
2022-09-15T22:18:06.834Z,98706.56
2022-09-15T22:21:11.541Z,98721.13
2022-09-15T22:24:14.433Z,98724.72
2022-09-15T22:27:17.102Z,98738.84
2022-09-15T22:30:20.508Z,98741.91
2022-09-15T22:33:23.201Z,98749.91
2022-09-15T22:36:29.987Z,98746.81
2022-09-15T22:39:57.287Z,98753.00
2022-09-15T22:42:55.835Z,98752.53
2022-09-15T22:45:58.523Z,98751.06
2022-09-15T22:49:01.684Z,98744.25
2022-09-15T22:52:04.618Z,98749.13
2022-09-15T22:55:07.940Z,98752.03
2022-09-15T22:58:10.656Z,98749.28
2022-09-15T23:01:36.093Z,98756.06
2022-09-15T23:04:38.949Z,98752.50
2022-09-15T23:07:41.802Z,98761.09
2022-09-15T23:10:44.760Z,98761.09
2022-09-15T23:13:47.902Z,98773.75
2022-09-15T23:16:50.449Z,98762.91
2022-09-15T23:19:53.523Z,98760.31
2022-09-15T23:22:56.181Z,98737.28
2022-09-15T23:25:59.295Z,98747.69
2022-09-15T23:29:01.927Z,98757.69
2022-09-15T23:32:05.429Z,98759.97
2022-09-15T23:35:08.636Z,98753.13
2022-09-15T23:38:11.803Z,98754.94
2022-09-15T23:41:15.659Z,98759.00
2022-09-15T23:44:18.765Z,98759.00
2022-09-15T23:47:21.515Z,98769.72
2022-09-15T23:50:26.450Z,98769.84
2022-09-15T23:53:29.070Z,98788.19
2022-09-15T23:56:32.513Z,98798.28
2022-09-15T23:59:35.117Z,98784.44
